sensor_id;sensor_type;location;lat;lon;timestamp;P1;durP1;ratioP1;P2;durP2;ratioP2
39242;SDS011;29823;47.404;8.566;2023-02-15T00:02:06;542.08;;;56.08;;
39242;SDS011;29823;47.404;8.566;2023-02-15T00:04:34;256.17;;;47.20;;
39242;SDS011;29823;47.404;8.566;2023-02-15T00:07:14;642.88;;;57.88;;
39242;SDS011;29823;47.404;8.566;2023-02-15T00:09:44;246.35;;;43.00;;
39242;SDS011;29823;47.404;8.566;2023-02-15T00:12:15;722.60;;;64.63;;
39242;SDS011;29823;47.404;8.566;2023-02-15T00:14:43;790.65;;;69.38;;
39242;SDS011;29823;47.404;8.566;2023-02-15T00:17:11;613.67;;;61.13;;
39242;SDS011;29823;47.404;8.566;2023-02-15T00:19:39;182.60;;;40.60;;
39242;SDS011;29823;47.404;8.566;2023-02-15T00:22:07;237.05;;;43.88;;
39242;SDS011;29823;47.404;8.566;2023-02-15T00:24:35;645.08;;;58.65;;
39242;SDS011;29823;47.404;8.566;2023-02-15T00:27:03;343.05;;;40.10;;
39242;SDS011;29823;47.404;8.566;2023-02-15T00:29:32;668.30;;;56.05;;
39242;SDS011;29823;47.404;8.566;2023-02-15T00:32:00;222.35;;;38.88;;
39242;SDS011;29823;47.404;8.566;2023-02-15T00:34:28;464.55;;;45.22;;
39242;SDS011;29823;47.404;8.566;2023-02-15T00:36:56;227.43;;;40.78;;
39242;SDS011;29823;47.404;8.566;2023-02-15T00:39:24;351.98;;;44.45;;
39242;SDS011;29823;47.404;8.566;2023-02-15T00:41:53;294.60;;;39.55;;
39242;SDS011;29823;47.404;8.566;2023-02-15T00:44:21;356.13;;;41.55;;
39242;SDS011;29823;47.404;8.566;2023-02-15T00:46:50;725.78;;;62.00;;
39242;SDS011;29823;47.404;8.566;2023-02-15T00:49:18;298.67;;;39.75;;
39242;SDS011;29823;47.404;8.566;2023-02-15T00:51:46;252.25;;;38.92;;
39242;SDS011;29823;47.404;8.566;2023-02-15T00:54:13;465.73;;;59.65;;
39242;SDS011;29823;47.404;8.566;2023-02-15T00:56:41;300.17;;;47.35;;
39242;SDS011;29823;47.404;8.566;2023-02-15T00:59:09;280.73;;;40.92;;
39242;SDS011;29823;47.404;8.566;2023-02-15T01:01:37;271.10;;;38.70;;
39242;SDS011;29823;47.404;8.566;2023-02-15T01:04:06;336.17;;;41.03;;
39242;SDS011;29823;47.404;8.566;2023-02-15T01:06:34;228.63;;;40.05;;
39242;SDS011;29823;47.404;8.566;2023-02-15T01:09:02;235.60;;;39.63;;
39242;SDS011;29823;47.404;8.566;2023-02-15T01:11:30;502.75;;;46.00;;
39242;SDS011;29823;47.404;8.566;2023-02-15T01:13:58;246.85;;;38.53;;
39242;SDS011;29823;47.404;8.566;2023-02-15T01:16:27;407.48;;;43.78;;
39242;SDS011;29823;47.404;8.566;2023-02-15T01:18:55;525.42;;;48.75;;
39242;SDS011;29823;47.404;8.566;2023-02-15T01:21:25;234.23;;;35.70;;
39242;SDS011;29823;47.404;8.566;2023-02-15T01:23:53;384.27;;;40.75;;
39242;SDS011;29823;47.404;8.566;2023-02-15T01:26:21;243.35;;;37.50;;
39242;SDS011;29823;47.404;8.566;2023-02-15T01:28:49;225.88;;;34.92;;
39242;SDS011;29823;47.404;8.566;2023-02-15T01:31:19;303.95;;;35.40;;
39242;SDS011;29823;47.404;8.566;2023-02-15T01:33:49;260.73;;;35.90;;
39242;SDS011;29823;47.404;8.566;2023-02-15T01:36:18;308.65;;;34.13;;
39242;SDS011;29823;47.404;8.566;2023-02-15T01:38:49;156.40;;;31.75;;
39242;SDS011;29823;47.404;8.566;2023-02-15T01:41:17;429.58;;;40.90;;
39242;SDS011;29823;47.404;8.566;2023-02-15T01:43:50;267.40;;;35.25;;
39242;SDS011;29823;47.404;8.566;2023-02-15T01:46:22;209.77;;;30.65;;
39242;SDS011;29823;47.404;8.566;2023-02-15T01:48:54;225.88;;;33.63;;
39242;SDS011;29823;47.404;8.566;2023-02-15T01:51:27;306.63;;;34.05;;
39242;SDS011;29823;47.404;8.566;2023-02-15T01:54:01;258.58;;;32.03;;
39242;SDS011;29823;47.404;8.566;2023-02-15T01:56:33;447.88;;;40.60;;
39242;SDS011;29823;47.404;8.566;2023-02-15T01:59:04;336.23;;;34.10;;
39242;SDS011;29823;47.404;8.566;2023-02-15T02:01:35;432.92;;;35.92;;
39242;SDS011;29823;47.404;8.566;2023-02-15T02:04:04;495.88;;;37.20;;
39242;SDS011;29823;47.404;8.566;2023-02-15T02:06:39;519.30;;;42.60;;
39242;SDS011;29823;47.404;8.566;2023-02-15T02:09:08;513.10;;;40.13;;
39242;SDS011;29823;47.404;8.566;2023-02-15T02:11:37;305.52;;;35.78;;
39242;SDS011;29823;47.404;8.566;2023-02-15T02:14:06;116.03;;;26.60;;
39242;SDS011;29823;47.404;8.566;2023-02-15T02:16:37;130.65;;;28.25;;
39242;SDS011;29823;47.404;8.566;2023-02-15T02:19:18;174.20;;;29.30;;
39242;SDS011;29823;47.404;8.566;2023-02-15T02:22:08;345.55;;;34.60;;
39242;SDS011;29823;47.404;8.566;2023-02-15T02:25:08;384.38;;;35.38;;
39242;SDS011;29823;47.404;8.566;2023-02-15T02:27:49;106.93;;;29.23;;
39242;SDS011;29823;47.404;8.566;2023-02-15T02:33:34;139.60;;;29.33;;
39242;SDS011;29823;47.404;8.566;2023-02-15T02:36:15;97.57;;;28.45;;
39242;SDS011;29823;47.404;8.566;2023-02-15T02:38:53;104.53;;;28.77;;
39242;SDS011;29823;47.404;8.566;2023-02-15T02:41:36;258.48;;;33.20;;
39242;SDS011;29823;47.404;8.566;2023-02-15T02:44:10;164.48;;;29.88;;
39242;SDS011;29823;47.404;8.566;2023-02-15T02:46:46;97.45;;;28.27;;
39242;SDS011;29823;47.404;8.566;2023-02-15T02:49:28;134.95;;;32.53;;
39242;SDS011;29823;47.404;8.566;2023-02-15T02:51:58;115.95;;;30.60;;
39242;SDS011;29823;47.404;8.566;2023-02-15T02:54:27;124.63;;;30.60;;
39242;SDS011;29823;47.404;8.566;2023-02-15T02:56:56;191.25;;;32.50;;
39242;SDS011;29823;47.404;8.566;2023-02-15T02:59:30;86.10;;;30.75;;
39242;SDS011;29823;47.404;8.566;2023-02-15T03:02:05;98.97;;;31.73;;
39242;SDS011;29823;47.404;8.566;2023-02-15T03:04:41;153.10;;;33.38;;
39242;SDS011;29823;47.404;8.566;2023-02-15T03:07:13;178.15;;;33.58;;
39242;SDS011;29823;47.404;8.566;2023-02-15T03:09:49;137.02;;;31.67;;
39242;SDS011;29823;47.404;8.566;2023-02-15T03:12:20;90.82;;;30.00;;
39242;SDS011;29823;47.404;8.566;2023-02-15T03:14:51;94.53;;;31.45;;
39242;SDS011;29823;47.404;8.566;2023-02-15T03:17:21;168.93;;;31.00;;
39242;SDS011;29823;47.404;8.566;2023-02-15T03:22:26;119.18;;;27.52;;
39242;SDS011;29823;47.404;8.566;2023-02-15T03:25:01;134.65;;;29.17;;
39242;SDS011;29823;47.404;8.566;2023-02-15T03:27:33;126.80;;;31.02;;
39242;SDS011;29823;47.404;8.566;2023-02-15T03:30:06;158.75;;;32.92;;
39242;SDS011;29823;47.404;8.566;2023-02-15T03:32:36;115.05;;;29.52;;
39242;SDS011;29823;47.404;8.566;2023-02-15T03:35:08;95.38;;;30.10;;
39242;SDS011;29823;47.404;8.566;2023-02-15T03:37:36;207.27;;;33.22;;
39242;SDS011;29823;47.404;8.566;2023-02-15T03:40:10;108.30;;;30.95;;
39242;SDS011;29823;47.404;8.566;2023-02-15T03:43:01;201.10;;;31.33;;
39242;SDS011;29823;47.404;8.566;2023-02-15T03:45:38;177.95;;;29.85;;
39242;SDS011;29823;47.404;8.566;2023-02-15T03:48:21;234.07;;;32.47;;
39242;SDS011;29823;47.404;8.566;2023-02-15T03:50:54;163.75;;;29.77;;
39242;SDS011;29823;47.404;8.566;2023-02-15T03:53:42;139.57;;;29.50;;
39242;SDS011;29823;47.404;8.566;2023-02-15T03:56:11;108.97;;;30.33;;
39242;SDS011;29823;47.404;8.566;2023-02-15T03:58:39;89.90;;;29.42;;
39242;SDS011;29823;47.404;8.566;2023-02-15T04:01:26;207.77;;;30.30;;
39242;SDS011;29823;47.404;8.566;2023-02-15T04:04:33;255.80;;;30.98;;
39242;SDS011;29823;47.404;8.566;2023-02-15T04:07:04;338.55;;;32.33;;
39242;SDS011;29823;47.404;8.566;2023-02-15T04:09:33;172.85;;;29.23;;
39242;SDS011;29823;47.404;8.566;2023-02-15T04:12:19;206.73;;;30.55;;
39242;SDS011;29823;47.404;8.566;2023-02-15T04:14:49;103.95;;;28.65;;
39242;SDS011;29823;47.404;8.566;2023-02-15T04:17:35;192.00;;;31.23;;
39242;SDS011;29823;47.404;8.566;2023-02-15T04:20:03;127.00;;;28.55;;
39242;SDS011;29823;47.404;8.566;2023-02-15T04:22:52;223.13;;;31.13;;
39242;SDS011;29823;47.404;8.566;2023-02-15T04:25:37;118.20;;;29.95;;
39242;SDS011;29823;47.404;8.566;2023-02-15T04:28:06;89.90;;;30.58;;
39242;SDS011;29823;47.404;8.566;2023-02-15T04:30:35;66.57;;;27.55;;
39242;SDS011;29823;47.404;8.566;2023-02-15T04:33:03;73.18;;;28.95;;
39242;SDS011;29823;47.404;8.566;2023-02-15T04:35:31;62.83;;;27.15;;
39242;SDS011;29823;47.404;8.566;2023-02-15T04:38:01;67.38;;;29.10;;
39242;SDS011;29823;47.404;8.566;2023-02-15T04:40:28;61.97;;;26.08;;
39242;SDS011;29823;47.404;8.566;2023-02-15T04:42:56;56.72;;;25.52;;
39242;SDS011;29823;47.404;8.566;2023-02-15T04:45:24;53.50;;;25.77;;
39242;SDS011;29823;47.404;8.566;2023-02-15T04:47:53;82.53;;;26.23;;
39242;SDS011;29823;47.404;8.566;2023-02-15T04:50:21;61.75;;;24.90;;
39242;SDS011;29823;47.404;8.566;2023-02-15T04:52:49;65.75;;;25.20;;
39242;SDS011;29823;47.404;8.566;2023-02-15T04:55:18;54.72;;;24.73;;
39242;SDS011;29823;47.404;8.566;2023-02-15T04:57:46;78.20;;;27.58;;
39242;SDS011;29823;47.404;8.566;2023-02-15T05:00:14;64.70;;;26.02;;
39242;SDS011;29823;47.404;8.566;2023-02-15T05:02:43;92.88;;;25.80;;
39242;SDS011;29823;47.404;8.566;2023-02-15T05:05:11;136.73;;;26.98;;
39242;SDS011;29823;47.404;8.566;2023-02-15T05:07:41;82.10;;;24.67;;
39242;SDS011;29823;47.404;8.566;2023-02-15T05:10:09;63.63;;;24.98;;
39242;SDS011;29823;47.404;8.566;2023-02-15T05:12:38;89.90;;;25.13;;
39242;SDS011;29823;47.404;8.566;2023-02-15T05:15:08;90.60;;;25.73;;
39242;SDS011;29823;47.404;8.566;2023-02-15T05:17:37;124.97;;;28.95;;
39242;SDS011;29823;47.404;8.566;2023-02-15T05:20:05;118.07;;;27.33;;
39242;SDS011;29823;47.404;8.566;2023-02-15T05:22:34;119.35;;;27.88;;
39242;SDS011;29823;47.404;8.566;2023-02-15T05:25:04;134.65;;;26.17;;
39242;SDS011;29823;47.404;8.566;2023-02-15T05:27:58;118.70;;;27.92;;
39242;SDS011;29823;47.404;8.566;2023-02-15T05:30:43;119.72;;;26.60;;
39242;SDS011;29823;47.404;8.566;2023-02-15T05:33:11;89.07;;;27.10;;
39242;SDS011;29823;47.404;8.566;2023-02-15T05:35:41;131.73;;;27.02;;
39242;SDS011;29823;47.404;8.566;2023-02-15T05:38:09;165.40;;;29.85;;
39242;SDS011;29823;47.404;8.566;2023-02-15T05:40:36;123.50;;;28.05;;
39242;SDS011;29823;47.404;8.566;2023-02-15T05:43:06;144.40;;;28.73;;
39242;SDS011;29823;47.404;8.566;2023-02-15T05:45:33;240.48;;;31.35;;
39242;SDS011;29823;47.404;8.566;2023-02-15T05:48:01;187.20;;;29.70;;
39242;SDS011;29823;47.404;8.566;2023-02-15T05:50:29;200.25;;;29.52;;
39242;SDS011;29823;47.404;8.566;2023-02-15T05:52:57;245.57;;;31.48;;
39242;SDS011;29823;47.404;8.566;2023-02-15T05:55:25;262.13;;;32.65;;
39242;SDS011;29823;47.404;8.566;2023-02-15T05:57:53;155.75;;;29.73;;
39242;SDS011;29823;47.404;8.566;2023-02-15T06:00:22;129.18;;;31.13;;
39242;SDS011;29823;47.404;8.566;2023-02-15T06:02:51;331.08;;;34.38;;
39242;SDS011;29823;47.404;8.566;2023-02-15T06:05:19;479.45;;;37.60;;
39242;SDS011;29823;47.404;8.566;2023-02-15T06:07:47;414.65;;;37.85;;
39242;SDS011;29823;47.404;8.566;2023-02-15T06:10:15;403.27;;;35.28;;
39242;SDS011;29823;47.404;8.566;2023-02-15T06:12:43;189.57;;;30.17;;
39242;SDS011;29823;47.404;8.566;2023-02-15T06:15:11;301.98;;;35.25;;
39242;SDS011;29823;47.404;8.566;2023-02-15T06:17:42;254.43;;;32.25;;
39242;SDS011;29823;47.404;8.566;2023-02-15T06:20:10;348.95;;;36.65;;
39242;SDS011;29823;47.404;8.566;2023-02-15T06:22:40;234.85;;;34.05;;
39242;SDS011;29823;47.404;8.566;2023-02-15T06:25:08;144.93;;;30.58;;
39242;SDS011;29823;47.404;8.566;2023-02-15T06:27:37;339.27;;;34.33;;
39242;SDS011;29823;47.404;8.566;2023-02-15T06:30:09;350.92;;;35.53;;
39242;SDS011;29823;47.404;8.566;2023-02-15T06:32:39;245.23;;;32.00;;
39242;SDS011;29823;47.404;8.566;2023-02-15T06:35:09;218.95;;;32.53;;
39242;SDS011;29823;47.404;8.566;2023-02-15T06:37:37;396.25;;;34.97;;
39242;SDS011;29823;47.404;8.566;2023-02-15T06:40:05;239.65;;;33.80;;
39242;SDS011;29823;47.404;8.566;2023-02-15T06:42:34;356.60;;;34.63;;
39242;SDS011;29823;47.404;8.566;2023-02-15T06:45:02;398.10;;;36.00;;
39242;SDS011;29823;47.404;8.566;2023-02-15T06:47:33;248.87;;;32.57;;
39242;SDS011;29823;47.404;8.566;2023-02-15T06:50:02;318.45;;;34.80;;
39242;SDS011;29823;47.404;8.566;2023-02-15T06:52:31;481.20;;;42.10;;
39242;SDS011;29823;47.404;8.566;2023-02-15T06:55:00;156.98;;;30.83;;
39242;SDS011;29823;47.404;8.566;2023-02-15T06:57:27;447.60;;;38.22;;
39242;SDS011;29823;47.404;8.566;2023-02-15T06:59:55;528.28;;;36.97;;
39242;SDS011;29823;47.404;8.566;2023-02-15T07:02:24;209.18;;;31.13;;
39242;SDS011;29823;47.404;8.566;2023-02-15T07:04:52;211.77;;;32.30;;
39242;SDS011;29823;47.404;8.566;2023-02-15T07:07:20;225.75;;;31.08;;
39242;SDS011;29823;47.404;8.566;2023-02-15T07:09:49;203.73;;;31.17;;
39242;SDS011;29823;47.404;8.566;2023-02-15T07:12:17;126.43;;;29.98;;
39242;SDS011;29823;47.404;8.566;2023-02-15T07:15:02;173.60;;;30.63;;
39242;SDS011;29823;47.404;8.566;2023-02-15T07:17:33;151.38;;;31.13;;
39242;SDS011;29823;47.404;8.566;2023-02-15T07:20:02;150.15;;;29.92;;
39242;SDS011;29823;47.404;8.566;2023-02-15T07:22:31;236.55;;;30.35;;
39242;SDS011;29823;47.404;8.566;2023-02-15T07:25:01;204.82;;;27.83;;
39242;SDS011;29823;47.404;8.566;2023-02-15T07:27:30;77.50;;;25.50;;
39242;SDS011;29823;47.404;8.566;2023-02-15T07:29:59;163.30;;;28.80;;
39242;SDS011;29823;47.404;8.566;2023-02-15T07:32:27;191.77;;;29.95;;
39242;SDS011;29823;47.404;8.566;2023-02-15T07:34:57;149.35;;;29.13;;
39242;SDS011;29823;47.404;8.566;2023-02-15T07:37:26;173.98;;;27.85;;
39242;SDS011;29823;47.404;8.566;2023-02-15T07:39:55;222.02;;;30.08;;
39242;SDS011;29823;47.404;8.566;2023-02-15T07:42:26;129.30;;;27.95;;
39242;SDS011;29823;47.404;8.566;2023-02-15T07:44:54;415.67;;;35.50;;
39242;SDS011;29823;47.404;8.566;2023-02-15T07:47:22;317.95;;;32.05;;
39242;SDS011;29823;47.404;8.566;2023-02-15T07:49:50;283.85;;;33.72;;
39242;SDS011;29823;47.404;8.566;2023-02-15T07:52:18;78.60;;;27.00;;
39242;SDS011;29823;47.404;8.566;2023-02-15T07:54:45;109.20;;;26.38;;
39242;SDS011;29823;47.404;8.566;2023-02-15T07:57:13;249.77;;;29.83;;
39242;SDS011;29823;47.404;8.566;2023-02-15T07:59:42;142.18;;;27.27;;
39242;SDS011;29823;47.404;8.566;2023-02-15T08:02:10;63.38;;;25.15;;
39242;SDS011;29823;47.404;8.566;2023-02-15T08:04:38;80.38;;;25.38;;
39242;SDS011;29823;47.404;8.566;2023-02-15T08:07:06;102.03;;;25.67;;
39242;SDS011;29823;47.404;8.566;2023-02-15T08:09:34;74.15;;;24.52;;
39242;SDS011;29823;47.404;8.566;2023-02-15T08:12:02;73.47;;;25.17;;
39242;SDS011;29823;47.404;8.566;2023-02-15T08:14:31;103.65;;;25.83;;
39242;SDS011;29823;47.404;8.566;2023-02-15T08:17:00;63.97;;;24.48;;
39242;SDS011;29823;47.404;8.566;2023-02-15T08:19:29;117.90;;;27.15;;
39242;SDS011;29823;47.404;8.566;2023-02-15T08:21:59;166.40;;;28.92;;
39242;SDS011;29823;47.404;8.566;2023-02-15T08:24:29;93.65;;;25.27;;
39242;SDS011;29823;47.404;8.566;2023-02-15T08:26:58;132.57;;;26.00;;
39242;SDS011;29823;47.404;8.566;2023-02-15T08:29:32;159.48;;;25.65;;
39242;SDS011;29823;47.404;8.566;2023-02-15T08:32:02;114.53;;;25.17;;
39242;SDS011;29823;47.404;8.566;2023-02-15T08:34:33;112.65;;;26.58;;
39242;SDS011;29823;47.404;8.566;2023-02-15T08:37:02;177.07;;;27.88;;
39242;SDS011;29823;47.404;8.566;2023-02-15T08:39:30;106.18;;;23.88;;
39242;SDS011;29823;47.404;8.566;2023-02-15T08:41:59;73.55;;;22.05;;
39242;SDS011;29823;47.404;8.566;2023-02-15T08:44:27;56.13;;;21.98;;
39242;SDS011;29823;47.404;8.566;2023-02-15T08:46:55;102.07;;;23.75;;
39242;SDS011;29823;47.404;8.566;2023-02-15T08:49:30;74.20;;;23.70;;
39242;SDS011;29823;47.404;8.566;2023-02-15T08:51:58;51.13;;;23.27;;
39242;SDS011;29823;47.404;8.566;2023-02-15T08:54:26;58.90;;;24.42;;
39242;SDS011;29823;47.404;8.566;2023-02-15T08:56:54;57.67;;;24.65;;
39242;SDS011;29823;47.404;8.566;2023-02-15T08:59:23;77.68;;;25.50;;
39242;SDS011;29823;47.404;8.566;2023-02-15T09:01:53;60.42;;;24.83;;
39242;SDS011;29823;47.404;8.566;2023-02-15T09:04:21;52.45;;;23.77;;
39242;SDS011;29823;47.404;8.566;2023-02-15T09:06:50;133.35;;;26.17;;
39242;SDS011;29823;47.404;8.566;2023-02-15T09:09:19;91.28;;;26.27;;
39242;SDS011;29823;47.404;8.566;2023-02-15T09:11:47;170.80;;;26.33;;
39242;SDS011;29823;47.404;8.566;2023-02-15T09:14:24;72.70;;;23.67;;
39242;SDS011;29823;47.404;8.566;2023-02-15T09:16:53;54.63;;;24.92;;
39242;SDS011;29823;47.404;8.566;2023-02-15T09:19:22;57.55;;;25.30;;
39242;SDS011;29823;47.404;8.566;2023-02-15T09:21:52;100.60;;;24.35;;
39242;SDS011;29823;47.404;8.566;2023-02-15T09:24:19;51.53;;;23.25;;
39242;SDS011;29823;47.404;8.566;2023-02-15T09:26:48;61.47;;;22.45;;
39242;SDS011;29823;47.404;8.566;2023-02-15T09:29:16;56.58;;;23.73;;
39242;SDS011;29823;47.404;8.566;2023-02-15T09:31:46;50.08;;;23.77;;
39242;SDS011;29823;47.404;8.566;2023-02-15T09:34:16;47.85;;;23.27;;
39242;SDS011;29823;47.404;8.566;2023-02-15T09:36:45;50.90;;;23.40;;
39242;SDS011;29823;47.404;8.566;2023-02-15T09:39:16;50.42;;;22.58;;
39242;SDS011;29823;47.404;8.566;2023-02-15T09:42:03;65.90;;;31.48;;
39242;SDS011;29823;47.404;8.566;2023-02-15T09:50:28;46.25;;;22.63;;
39242;SDS011;29823;47.404;8.566;2023-02-15T09:53:07;44.03;;;22.65;;
39242;SDS011;29823;47.404;8.566;2023-02-15T09:55:51;54.28;;;23.50;;
39242;SDS011;29823;47.404;8.566;2023-02-15T09:58:28;45.25;;;23.08;;
39242;SDS011;29823;47.404;8.566;2023-02-15T10:01:03;43.85;;;20.45;;
39242;SDS011;29823;47.404;8.566;2023-02-15T10:03:42;47.40;;;22.85;;
39242;SDS011;29823;47.404;8.566;2023-02-15T10:06:27;42.67;;;22.80;;
39242;SDS011;29823;47.404;8.566;2023-02-15T10:09:18;51.85;;;24.23;;
39242;SDS011;29823;47.404;8.566;2023-02-15T10:12:01;60.28;;;27.90;;
39242;SDS011;29823;47.404;8.566;2023-02-15T10:14:56;69.50;;;30.40;;
39242;SDS011;29823;47.404;8.566;2023-02-15T10:17:46;84.27;;;37.97;;
39242;SDS011;29823;47.404;8.566;2023-02-15T10:20:28;91.20;;;39.17;;
39242;SDS011;29823;47.404;8.566;2023-02-15T10:23:08;93.95;;;40.17;;
39242;SDS011;29823;47.404;8.566;2023-02-15T10:25:50;84.80;;;37.17;;
39242;SDS011;29823;47.404;8.566;2023-02-15T10:28:26;84.45;;;39.90;;
39242;SDS011;29823;47.404;8.566;2023-02-15T10:31:04;93.07;;;39.38;;
39242;SDS011;29823;47.404;8.566;2023-02-15T10:33:41;87.57;;;40.20;;
39242;SDS011;29823;47.404;8.566;2023-02-15T10:36:17;92.90;;;40.77;;
39242;SDS011;29823;47.404;8.566;2023-02-15T10:38:58;86.75;;;40.10;;
39242;SDS011;29823;47.404;8.566;2023-02-15T10:41:36;89.90;;;39.72;;
39242;SDS011;29823;47.404;8.566;2023-02-15T10:44:21;87.03;;;39.53;;
39242;SDS011;29823;47.404;8.566;2023-02-15T10:47:06;80.18;;;39.03;;
39242;SDS011;29823;47.404;8.566;2023-02-15T10:49:55;76.55;;;35.72;;
39242;SDS011;29823;47.404;8.566;2023-02-15T10:52:37;76.55;;;34.88;;
39242;SDS011;29823;47.404;8.566;2023-02-15T10:55:23;84.07;;;37.17;;
39242;SDS011;29823;47.404;8.566;2023-02-15T10:58:03;78.72;;;36.45;;
39242;SDS011;29823;47.404;8.566;2023-02-15T11:00:44;70.13;;;34.47;;
39242;SDS011;29823;47.404;8.566;2023-02-15T11:03:18;82.00;;;37.35;;
39242;SDS011;29823;47.404;8.566;2023-02-15T11:05:57;84.90;;;40.72;;
39242;SDS011;29823;47.404;8.566;2023-02-15T11:08:31;86.80;;;39.15;;
39242;SDS011;29823;47.404;8.566;2023-02-15T11:11:03;88.97;;;38.50;;
39242;SDS011;29823;47.404;8.566;2023-02-15T11:13:36;87.93;;;43.33;;
39242;SDS011;29823;47.404;8.566;2023-02-15T11:16:12;88.72;;;40.90;;
39242;SDS011;29823;47.404;8.566;2023-02-15T11:18:45;75.60;;;36.97;;
39242;SDS011;29823;47.404;8.566;2023-02-15T11:21:20;78.45;;;37.42;;
39242;SDS011;29823;47.404;8.566;2023-02-15T11:23:50;78.22;;;36.80;;
39242;SDS011;29823;47.404;8.566;2023-02-15T11:26:21;68.43;;;33.80;;
39242;SDS011;29823;47.404;8.566;2023-02-15T11:28:55;63.08;;;34.60;;
39242;SDS011;29823;47.404;8.566;2023-02-15T11:31:31;56.03;;;33.03;;
39242;SDS011;29823;47.404;8.566;2023-02-15T11:34:11;59.40;;;34.30;;
39242;SDS011;29823;47.404;8.566;2023-02-15T11:36:45;58.13;;;32.47;;
39242;SDS011;29823;47.404;8.566;2023-02-15T11:39:16;61.40;;;36.05;;
39242;SDS011;29823;47.404;8.566;2023-02-15T11:41:46;58.78;;;34.50;;
39242;SDS011;29823;47.404;8.566;2023-02-15T11:44:19;60.63;;;33.97;;
39242;SDS011;29823;47.404;8.566;2023-02-15T11:46:53;57.00;;;34.83;;
39242;SDS011;29823;47.404;8.566;2023-02-15T11:49:22;60.42;;;35.58;;
39242;SDS011;29823;47.404;8.566;2023-02-15T11:51:56;60.40;;;35.42;;
39242;SDS011;29823;47.404;8.566;2023-02-15T11:54:26;63.90;;;35.13;;
39242;SDS011;29823;47.404;8.566;2023-02-15T11:56:59;63.83;;;35.72;;
39242;SDS011;29823;47.404;8.566;2023-02-15T11:59:34;65.40;;;37.90;;
39242;SDS011;29823;47.404;8.566;2023-02-15T12:04:43;58.88;;;35.95;;
39242;SDS011;29823;47.404;8.566;2023-02-15T12:07:17;58.20;;;37.22;;
39242;SDS011;29823;47.404;8.566;2023-02-15T12:09:52;58.83;;;35.90;;
39242;SDS011;29823;47.404;8.566;2023-02-15T12:12:27;63.28;;;39.13;;
39242;SDS011;29823;47.404;8.566;2023-02-15T12:14:57;60.58;;;38.83;;
39242;SDS011;29823;47.404;8.566;2023-02-15T12:17:28;61.63;;;37.90;;
39242;SDS011;29823;47.404;8.566;2023-02-15T12:19:59;57.95;;;37.40;;
39242;SDS011;29823;47.404;8.566;2023-02-15T12:22:30;58.42;;;39.17;;
39242;SDS011;29823;47.404;8.566;2023-02-15T12:25:00;60.90;;;39.08;;
39242;SDS011;29823;47.404;8.566;2023-02-15T12:27:32;56.83;;;38.25;;
39242;SDS011;29823;47.404;8.566;2023-02-15T12:30:04;53.38;;;35.33;;
39242;SDS011;29823;47.404;8.566;2023-02-15T12:32:46;54.22;;;33.47;;
39242;SDS011;29823;47.404;8.566;2023-02-15T12:35:19;54.00;;;35.03;;
39242;SDS011;29823;47.404;8.566;2023-02-15T12:37:54;54.60;;;35.47;;
39242;SDS011;29823;47.404;8.566;2023-02-15T12:40:24;50.50;;;33.28;;
39242;SDS011;29823;47.404;8.566;2023-02-15T12:42:56;48.20;;;33.67;;
39242;SDS011;29823;47.404;8.566;2023-02-15T12:45:26;44.17;;;29.58;;
39242;SDS011;29823;47.404;8.566;2023-02-15T12:48:15;41.97;;;30.33;;
39242;SDS011;29823;47.404;8.566;2023-02-15T12:50:44;42.15;;;28.95;;
39242;SDS011;29823;47.404;8.566;2023-02-15T12:53:20;35.42;;;25.15;;
39242;SDS011;29823;47.404;8.566;2023-02-15T12:55:51;37.40;;;26.10;;
39242;SDS011;29823;47.404;8.566;2023-02-15T12:58:21;36.42;;;25.23;;
39242;SDS011;29823;47.404;8.566;2023-02-15T13:01:08;35.08;;;24.42;;
39242;SDS011;29823;47.404;8.566;2023-02-15T13:03:53;31.85;;;22.42;;
39242;SDS011;29823;47.404;8.566;2023-02-15T13:06:24;36.13;;;21.50;;
39242;SDS011;29823;47.404;8.566;2023-02-15T13:08:53;29.90;;;21.50;;
39242;SDS011;29823;47.404;8.566;2023-02-15T13:11:25;32.83;;;21.27;;
39242;SDS011;29823;47.404;8.566;2023-02-15T13:14:00;37.00;;;22.55;;
39242;SDS011;29823;47.404;8.566;2023-02-15T13:16:30;35.50;;;22.95;;
39242;SDS011;29823;47.404;8.566;2023-02-15T13:19:04;38.70;;;24.23;;
39242;SDS011;29823;47.404;8.566;2023-02-15T13:21:39;34.78;;;23.73;;
39242;SDS011;29823;47.404;8.566;2023-02-15T13:24:13;39.30;;;25.13;;
39242;SDS011;29823;47.404;8.566;2023-02-15T13:26:45;41.65;;;24.38;;
39242;SDS011;29823;47.404;8.566;2023-02-15T13:29:17;39.28;;;24.65;;
39242;SDS011;29823;47.404;8.566;2023-02-15T13:31:49;39.60;;;24.70;;
39242;SDS011;29823;47.404;8.566;2023-02-15T13:34:22;38.67;;;24.50;;
39242;SDS011;29823;47.404;8.566;2023-02-15T13:36:54;39.78;;;24.23;;
39242;SDS011;29823;47.404;8.566;2023-02-15T13:39:30;41.80;;;24.10;;
39242;SDS011;29823;47.404;8.566;2023-02-15T13:42:13;39.00;;;22.92;;
39242;SDS011;29823;47.404;8.566;2023-02-15T13:45:00;45.35;;;24.60;;
39242;SDS011;29823;47.404;8.566;2023-02-15T13:47:44;37.42;;;23.60;;
39242;SDS011;29823;47.404;8.566;2023-02-15T13:50:28;42.00;;;22.55;;
39242;SDS011;29823;47.404;8.566;2023-02-15T13:53:11;34.55;;;22.48;;
39242;SDS011;29823;47.404;8.566;2023-02-15T13:55:51;40.85;;;23.20;;
39242;SDS011;29823;47.404;8.566;2023-02-15T13:58:36;41.92;;;22.85;;
39242;SDS011;29823;47.404;8.566;2023-02-15T14:01:23;39.25;;;22.90;;
39242;SDS011;29823;47.404;8.566;2023-02-15T14:07:16;36.72;;;22.38;;
39242;SDS011;29823;47.404;8.566;2023-02-15T14:10:09;39.45;;;22.33;;
39242;SDS011;29823;47.404;8.566;2023-02-15T14:12:58;40.65;;;23.00;;
39242;SDS011;29823;47.404;8.566;2023-02-15T14:15:50;50.20;;;24.60;;
39242;SDS011;29823;47.404;8.566;2023-02-15T14:18:27;40.83;;;23.25;;
39242;SDS011;29823;47.404;8.566;2023-02-15T14:21:04;37.00;;;21.95;;
39242;SDS011;29823;47.404;8.566;2023-02-15T14:23:40;42.95;;;21.88;;
39242;SDS011;29823;47.404;8.566;2023-02-15T14:26:15;40.00;;;21.90;;
39242;SDS011;29823;47.404;8.566;2023-02-15T14:28:50;38.72;;;21.05;;
39242;SDS011;29823;47.404;8.566;2023-02-15T14:31:25;40.42;;;21.73;;
39242;SDS011;29823;47.404;8.566;2023-02-15T14:33:58;46.72;;;21.40;;
39242;SDS011;29823;47.404;8.566;2023-02-15T14:36:26;36.75;;;22.13;;
39242;SDS011;29823;47.404;8.566;2023-02-15T14:39:02;36.15;;;21.02;;
39242;SDS011;29823;47.404;8.566;2023-02-15T14:42:04;38.75;;;22.30;;
39242;SDS011;29823;47.404;8.566;2023-02-15T14:44:40;38.22;;;21.40;;
39242;SDS011;29823;47.404;8.566;2023-02-15T14:47:18;42.15;;;22.15;;
39242;SDS011;29823;47.404;8.566;2023-02-15T14:49:51;42.70;;;22.92;;
39242;SDS011;29823;47.404;8.566;2023-02-15T14:52:18;38.13;;;22.35;;
39242;SDS011;29823;47.404;8.566;2023-02-15T14:54:57;41.13;;;23.02;;
39242;SDS011;29823;47.404;8.566;2023-02-15T14:57:27;39.63;;;21.80;;
39242;SDS011;29823;47.404;8.566;2023-02-15T15:00:02;37.65;;;21.52;;
39242;SDS011;29823;47.404;8.566;2023-02-15T15:02:46;41.40;;;22.15;;
39242;SDS011;29823;47.404;8.566;2023-02-15T15:05:18;49.23;;;22.47;;
39242;SDS011;29823;47.404;8.566;2023-02-15T15:10:40;39.90;;;21.05;;